createdAt,value
2019-05-26T00:01:55.177Z,3.13
2019-05-26T00:04:24.272Z,3.00
2019-05-26T00:06:53.387Z,3.10
2019-05-26T00:09:22.552Z,3.23
2019-05-26T00:11:51.718Z,2.90
2019-05-26T00:14:20.820Z,3.40
2019-05-26T00:16:49.932Z,2.87
2019-05-26T00:19:19.042Z,2.83
2019-05-26T00:21:48.184Z,3.10
2019-05-26T00:24:17.302Z,3.10
2019-05-26T00:26:46.405Z,2.90
2019-05-26T00:29:15.534Z,3.77
2019-05-26T00:31:44.637Z,3.10
2019-05-26T00:34:13.743Z,3.67
2019-05-26T00:36:42.886Z,3.50
2019-05-26T00:39:12.023Z,3.17
2019-05-26T00:41:41.288Z,3.50
2019-05-26T00:44:10.483Z,3.00
2019-05-26T00:46:39.611Z,3.03
2019-05-26T00:49:08.808Z,3.40
2019-05-26T00:51:37.907Z,3.50
2019-05-26T00:54:07.056Z,3.30
2019-05-26T00:56:36.253Z,3.37
2019-05-26T00:59:05.374Z,3.07
2019-05-26T01:01:34.657Z,3.27
2019-05-26T01:04:03.844Z,3.30
2019-05-26T01:06:32.928Z,3.73
2019-05-26T01:09:02.050Z,3.00
2019-05-26T01:11:31.412Z,2.93
2019-05-26T01:14:00.760Z,3.20
2019-05-26T01:16:29.863Z,2.80
2019-05-26T01:18:58.973Z,2.93
2019-05-26T01:21:28.861Z,3.20
2019-05-26T01:23:57.964Z,3.13
2019-05-26T01:26:27.061Z,3.27
2019-05-26T01:28:56.153Z,3.70
2019-05-26T01:31:25.264Z,3.33
2019-05-26T01:33:54.366Z,3.70
2019-05-26T01:36:23.568Z,3.20
2019-05-26T01:38:53.267Z,3.70
2019-05-26T01:41:22.357Z,3.60
2019-05-26T01:43:51.460Z,3.07
2019-05-26T01:46:20.571Z,3.67
2019-05-26T01:48:49.667Z,3.93
2019-05-26T01:51:18.769Z,3.50
2019-05-26T01:53:47.870Z,3.73
2019-05-26T01:56:16.959Z,3.77
2019-05-26T01:58:46.036Z,3.17
2019-05-26T02:01:15.213Z,3.37
2019-05-26T02:03:44.301Z,3.57
2019-05-26T02:06:13.406Z,3.40
2019-05-26T02:08:50.272Z,3.40
2019-05-26T02:11:19.348Z,3.70
2019-05-26T02:13:48.440Z,3.17
2019-05-26T02:16:17.881Z,3.57
2019-05-26T02:18:46.968Z,3.57
2019-05-26T02:21:16.078Z,3.90
2019-05-26T02:23:45.184Z,3.27
2019-05-26T02:26:14.272Z,2.90
2019-05-26T02:28:43.356Z,3.30
2019-05-26T02:31:12.468Z,3.00
2019-05-26T02:33:41.557Z,3.10
2019-05-26T02:36:11.017Z,2.90
2019-05-26T02:38:59.919Z,3.50
2019-05-26T02:41:11.181Z,2.87
2019-05-26T02:43:40.479Z,3.07
2019-05-26T02:46:09.566Z,3.50
2019-05-26T02:48:38.748Z,3.37
2019-05-26T02:51:08.083Z,3.17
2019-05-26T02:53:37.181Z,2.90
2019-05-26T02:56:07.453Z,3.43
2019-05-26T02:58:36.560Z,3.30
2019-05-26T03:01:05.714Z,3.20
2019-05-26T03:03:34.817Z,3.30
2019-05-26T03:06:04.075Z,3.27
2019-05-26T03:08:34.749Z,3.47
2019-05-26T03:11:03.920Z,2.83
2019-05-26T03:13:35.562Z,3.30
2019-05-26T03:16:04.923Z,3.30
2019-05-26T03:18:35.673Z,3.20
2019-05-26T03:21:05.060Z,4.20
2019-05-26T03:23:34.166Z,3.83
2019-05-26T03:26:03.292Z,4.03
2019-05-26T03:28:32.457Z,4.27
2019-05-26T03:31:01.547Z,4.13
2019-05-26T03:33:30.644Z,4.30
2019-05-26T03:35:59.767Z,4.20
2019-05-26T03:38:28.892Z,3.70
2019-05-26T03:40:57.993Z,4.33
2019-05-26T03:43:27.109Z,4.30
2019-05-26T03:46:15.491Z,4.47
2019-05-26T03:48:45.120Z,4.33
2019-05-26T03:51:14.302Z,4.27
2019-05-26T03:53:43.396Z,4.83
2019-05-26T03:56:12.477Z,4.67
2019-05-26T03:58:41.563Z,4.77
2019-05-26T04:01:10.668Z,5.13
2019-05-26T04:03:39.748Z,4.80
2019-05-26T04:06:08.841Z,6.10
2019-05-26T04:08:37.957Z,5.17
2019-05-26T04:11:07.112Z,5.50
2019-05-26T04:13:36.300Z,5.50
2019-05-26T04:16:05.494Z,5.60
2019-05-26T04:18:34.757Z,5.60
2019-05-26T04:21:04.819Z,5.70
2019-05-26T04:23:33.947Z,5.40
2019-05-26T04:26:03.036Z,5.47
2019-05-26T04:28:32.475Z,5.27
2019-05-26T04:31:01.654Z,5.77
2019-05-26T04:33:30.749Z,5.33
2019-05-26T04:36:00.211Z,5.17
2019-05-26T04:38:29.471Z,5.03
2019-05-26T04:40:58.565Z,5.07
2019-05-26T04:43:27.671Z,5.07
2019-05-26T04:45:56.777Z,4.63
2019-05-26T04:48:25.872Z,5.80
2019-05-26T04:50:54.976Z,5.87
2019-05-26T04:53:24.101Z,5.00
2019-05-26T04:55:53.187Z,4.80
2019-05-26T04:58:22.480Z,5.30
2019-05-26T05:00:51.596Z,4.40
2019-05-26T05:03:20.693Z,4.47
2019-05-26T05:05:49.799Z,5.13
2019-05-26T05:08:18.909Z,5.17
2019-05-26T05:10:48.016Z,4.57
2019-05-26T05:13:17.119Z,4.40
2019-05-26T05:15:46.343Z,4.30
2019-05-26T05:18:15.430Z,4.67
2019-05-26T05:20:44.509Z,4.80
2019-05-26T05:23:13.728Z,4.73
2019-05-26T05:25:42.808Z,4.40
2019-05-26T05:28:12.956Z,4.40
2019-05-26T05:30:42.057Z,4.20
2019-05-26T05:33:11.153Z,4.60
2019-05-26T05:35:40.252Z,4.60
2019-05-26T05:38:09.365Z,4.20
2019-05-26T05:40:39.432Z,4.63
2019-05-26T05:43:08.566Z,4.93
2019-05-26T05:45:37.730Z,4.60
2019-05-26T05:48:06.837Z,4.00
2019-05-26T05:50:39.081Z,4.93
2019-05-26T05:53:07.692Z,5.00
2019-05-26T05:55:36.857Z,4.80
2019-05-26T05:58:06.277Z,4.90
2019-05-26T06:00:45.355Z,5.17
2019-05-26T06:03:17.912Z,4.57
2019-05-26T06:05:45.247Z,4.87
2019-05-26T06:08:14.354Z,5.30
2019-05-26T06:10:43.449Z,5.40
2019-05-26T06:13:12.556Z,5.30
2019-05-26T06:15:41.656Z,5.10
2019-05-26T06:18:10.764Z,5.10
2019-05-26T06:20:40.028Z,5.47
2019-05-26T06:23:09.132Z,5.03
2019-05-26T06:25:38.247Z,5.03
2019-05-26T06:28:07.372Z,5.30
2019-05-26T06:30:36.464Z,6.00
2019-05-26T06:33:05.640Z,5.53
2019-05-26T06:35:34.759Z,5.67
2019-05-26T06:38:03.985Z,5.90
2019-05-26T06:40:33.164Z,5.80
2019-05-26T06:43:02.268Z,5.60
2019-05-26T06:45:31.436Z,5.50
2019-05-26T06:48:01.585Z,5.70
2019-05-26T06:50:31.256Z,6.43
2019-05-26T06:53:00.360Z,5.87
2019-05-26T06:55:29.797Z,5.87
2019-05-26T06:57:58.904Z,6.23
2019-05-26T07:00:28.396Z,6.20
2019-05-26T07:02:57.523Z,6.70
2019-05-26T07:05:26.629Z,6.97
2019-05-26T07:07:55.787Z,5.87
2019-05-26T07:10:24.857Z,6.53
2019-05-26T07:12:53.984Z,7.30
2019-05-26T07:15:23.084Z,6.50
2019-05-26T07:17:52.464Z,6.40
2019-05-26T07:20:21.591Z,6.47
2019-05-26T07:22:50.689Z,6.50
2019-05-26T07:25:19.795Z,7.10
2019-05-26T07:27:48.928Z,6.53
2019-05-26T07:30:18.159Z,7.80
2019-05-26T07:32:47.272Z,8.60
2019-05-26T07:38:46.163Z,7.90
2019-05-26T07:41:15.280Z,7.90
2019-05-26T07:43:44.463Z,8.70
2019-05-26T07:46:13.587Z,8.40
2019-05-26T07:48:42.704Z,7.70
2019-05-26T07:51:11.821Z,8.67
2019-05-26T07:53:41.696Z,8.77
2019-05-26T07:56:10.869Z,9.30
2019-05-26T07:58:39.987Z,8.10
2019-05-26T08:01:09.272Z,8.37
2019-05-26T08:03:38.383Z,7.63
2019-05-26T08:06:07.480Z,7.73
2019-05-26T08:08:36.600Z,8.50
2019-05-26T08:11:05.685Z,7.67
2019-05-26T08:13:34.801Z,7.47
2019-05-26T08:16:04.331Z,7.70
2019-05-26T08:18:33.449Z,7.93
2019-05-26T08:21:02.552Z,7.57
2019-05-26T08:23:31.773Z,7.70
2019-05-26T08:26:00.930Z,8.40
2019-05-26T08:28:30.168Z,8.90
2019-05-26T08:30:59.382Z,7.90
2019-05-26T08:33:28.685Z,8.00
2019-05-26T08:35:58.594Z,7.80
2019-05-26T08:38:27.716Z,8.40
2019-05-26T08:40:56.817Z,8.20
2019-05-26T08:43:26.195Z,8.60
2019-05-26T08:45:55.641Z,8.30
2019-05-26T08:48:24.764Z,9.03
2019-05-26T08:50:53.924Z,8.10
2019-05-26T08:53:23.049Z,8.27
2019-05-26T08:55:52.217Z,7.97
2019-05-26T08:58:21.316Z,7.60
2019-05-26T09:00:50.422Z,9.17
2019-05-26T09:03:19.559Z,8.87
2019-05-26T09:05:48.728Z,7.97
2019-05-26T09:08:17.849Z,9.07
2019-05-26T09:10:46.972Z,7.93
2019-05-26T09:13:16.066Z,9.20
2019-05-26T09:15:45.212Z,8.60
2019-05-26T09:18:14.312Z,8.47
2019-05-26T09:20:44.533Z,8.60
2019-05-26T09:23:13.708Z,8.77
2019-05-26T09:25:46.485Z,8.90
2019-05-26T09:28:15.233Z,9.10
2019-05-26T09:30:44.321Z,9.00
2019-05-26T09:33:13.429Z,8.67
2019-05-26T09:35:42.561Z,9.80
2019-05-26T09:38:11.740Z,9.57
2019-05-26T09:40:40.866Z,9.43
2019-05-26T09:43:15.995Z,9.07
2019-05-26T09:45:40.799Z,10.50
2019-05-26T09:48:09.905Z,9.67
2019-05-26T09:50:39.006Z,8.90
2019-05-26T09:53:08.372Z,9.03
2019-05-26T09:55:38.487Z,9.17
2019-05-26T09:58:07.613Z,9.20
2019-05-26T10:00:36.720Z,9.47
2019-05-26T10:03:05.822Z,9.20
2019-05-26T10:05:34.928Z,9.40
2019-05-26T10:08:04.105Z,9.90
2019-05-26T10:10:33.221Z,10.53
2019-05-26T10:13:02.335Z,11.13
2019-05-26T10:15:31.781Z,12.10
2019-05-26T10:18:00.909Z,11.17
2019-05-26T10:20:30.056Z,11.50
2019-05-26T10:22:59.239Z,11.30
2019-05-26T10:25:28.368Z,12.90
2019-05-26T10:27:57.473Z,12.53
2019-05-26T10:30:26.577Z,11.67
2019-05-26T10:32:55.708Z,11.97
2019-05-26T10:35:24.812Z,11.97
2019-05-26T10:37:53.936Z,13.50
2019-05-26T10:40:23.084Z,12.60
2019-05-26T10:42:52.211Z,11.90
2019-05-26T10:45:21.317Z,11.87
2019-05-26T10:47:50.439Z,11.63
2019-05-26T10:50:19.768Z,12.40
2019-05-26T10:52:48.866Z,11.27
2019-05-26T10:55:18.020Z,12.93
2019-05-26T10:57:47.200Z,12.13
2019-05-26T11:00:16.587Z,12.53
2019-05-26T11:02:45.698Z,13.17
2019-05-26T11:05:14.990Z,13.97
2019-05-26T11:07:44.159Z,14.87
2019-05-26T11:10:13.679Z,14.10
2019-05-26T11:12:43.779Z,15.73
2019-05-26T11:15:13.181Z,15.20
2019-05-26T11:17:42.302Z,14.73
2019-05-26T11:20:11.810Z,14.93
2019-05-26T11:22:40.951Z,15.07
2019-05-26T11:25:11.147Z,15.37
2019-05-26T11:27:40.256Z,16.47
2019-05-26T11:30:09.673Z,14.97
2019-05-26T11:32:38.805Z,15.70
2019-05-26T11:35:08.221Z,14.40
2019-05-26T11:37:37.405Z,14.50
2019-05-26T11:40:06.773Z,15.90
2019-05-26T11:42:35.971Z,16.20
2019-05-26T11:45:05.403Z,15.90
2019-05-26T11:47:34.567Z,14.93
2019-05-26T11:50:03.914Z,15.33
2019-05-26T11:52:33.176Z,14.97
2019-05-26T11:55:02.324Z,15.80
2019-05-26T11:57:31.646Z,15.10
2019-05-26T12:00:00.887Z,12.90
2019-05-26T12:02:30.105Z,14.70
2019-05-26T12:04:59.310Z,14.10
2019-05-26T12:07:28.452Z,13.67
2019-05-26T12:09:57.585Z,15.50
2019-05-26T12:12:26.748Z,12.50
2019-05-26T12:14:55.928Z,13.10
2019-05-26T12:17:25.091Z,11.93
2019-05-26T12:19:54.267Z,13.30
2019-05-26T12:22:23.417Z,11.80
2019-05-26T12:24:52.657Z,12.53
2019-05-26T12:27:21.788Z,11.80
2019-05-26T12:29:50.936Z,12.00
2019-05-26T12:32:20.098Z,13.10
2019-05-26T12:34:49.512Z,13.50
2019-05-26T12:37:18.612Z,12.13
2019-05-26T12:39:47.736Z,12.17
2019-05-26T12:42:17.278Z,13.17
2019-05-26T12:44:49.563Z,20.23
2019-05-26T12:47:17.457Z,11.07
2019-05-26T12:49:46.612Z,13.43
2019-05-26T12:52:15.961Z,11.50
2019-05-26T12:54:45.101Z,11.37
2019-05-26T12:57:14.284Z,11.40
2019-05-26T12:59:43.747Z,10.90
2019-05-26T13:02:12.926Z,11.43
2019-05-26T13:04:42.067Z,11.20
2019-05-26T13:07:11.540Z,11.80
2019-05-26T13:09:40.688Z,10.67
2019-05-26T13:12:09.936Z,11.13
2019-05-26T13:14:39.108Z,9.30
2019-05-26T13:17:08.309Z,10.77
2019-05-26T13:19:37.481Z,9.30
2019-05-26T13:22:06.696Z,10.73
2019-05-26T13:24:35.919Z,10.07
2019-05-26T13:27:05.216Z,9.80
2019-05-26T13:29:34.368Z,10.13
2019-05-26T13:32:03.540Z,9.30
2019-05-26T13:34:35.682Z,8.93
2019-05-26T13:37:03.640Z,10.00
2019-05-26T13:39:32.856Z,9.50
2019-05-26T13:42:02.014Z,9.23
2019-05-26T13:44:31.220Z,8.80
2019-05-26T13:47:00.375Z,9.40
2019-05-26T13:49:29.529Z,9.90
2019-05-26T13:51:58.663Z,8.90
2019-05-26T13:54:27.887Z,8.43
2019-05-26T13:56:57.117Z,9.20
2019-05-26T13:59:26.289Z,11.50
2019-05-26T14:01:55.424Z,8.77
2019-05-26T14:04:24.561Z,9.17
2019-05-26T14:06:53.741Z,7.63
2019-05-26T14:09:23.232Z,9.17
2019-05-26T14:11:52.373Z,8.03
2019-05-26T14:14:21.559Z,7.90
2019-05-26T14:16:52.412Z,8.83
2019-05-26T14:19:21.878Z,7.60
2019-05-26T14:21:51.082Z,7.53
2019-05-26T14:24:20.228Z,8.33
2019-05-26T14:26:49.368Z,6.60
2019-05-26T14:29:18.528Z,6.70
2019-05-26T14:31:47.676Z,7.27
2019-05-26T14:34:17.159Z,6.90
2019-05-26T14:36:46.372Z,6.53
2019-05-26T14:39:15.545Z,6.90
2019-05-26T14:41:44.670Z,6.50
2019-05-26T14:44:13.842Z,6.37
2019-05-26T14:46:42.991Z,6.40
2019-05-26T14:49:12.117Z,6.00
2019-05-26T14:51:41.310Z,6.87
2019-05-26T14:54:10.428Z,6.70
2019-05-26T14:56:39.569Z,5.40
2019-05-26T14:59:09.709Z,5.50
2019-05-26T15:01:38.846Z,5.77
2019-05-26T15:04:08.005Z,5.07
2019-05-26T15:06:37.141Z,5.60
2019-05-26T15:09:06.939Z,5.90
2019-05-26T15:11:36.087Z,5.40
2019-05-26T15:14:05.333Z,6.60
2019-05-26T15:16:34.550Z,8.17
2019-05-26T15:19:03.825Z,7.23
2019-05-26T15:21:33.360Z,19.23
2019-05-26T15:24:02.499Z,6.83
2019-05-26T15:26:31.660Z,7.70
2019-05-26T15:29:00.786Z,6.90
2019-05-26T15:31:30.255Z,7.60
2019-05-26T15:33:59.386Z,7.60
2019-05-26T15:36:28.542Z,6.67
2019-05-26T15:38:57.673Z,7.77
2019-05-26T15:41:26.793Z,7.60
2019-05-26T15:43:55.983Z,8.10
2019-05-26T15:46:25.940Z,8.10
2019-05-26T15:48:55.227Z,8.40
2019-05-26T15:51:24.364Z,7.37
2019-05-26T15:53:53.496Z,7.80
2019-05-26T15:56:22.654Z,7.70
2019-05-26T15:58:51.869Z,7.70
2019-05-26T16:01:21.036Z,7.10
2019-05-26T16:03:50.241Z,7.07
2019-05-26T16:06:19.390Z,7.90
2019-05-26T16:08:48.612Z,8.07
2019-05-26T16:11:17.790Z,7.63
2019-05-26T16:13:46.961Z,8.90
2019-05-26T16:16:16.172Z,8.00
2019-05-26T16:18:45.295Z,7.10
2019-05-26T16:21:27.138Z,7.70
2019-05-26T16:23:45.229Z,7.00
2019-05-26T16:26:14.388Z,8.00
2019-05-26T16:28:43.536Z,7.77
2019-05-26T16:31:12.681Z,8.73
2019-05-26T16:33:41.930Z,8.43
2019-05-26T16:36:11.020Z,7.33
2019-05-26T16:38:40.133Z,8.70
2019-05-26T16:41:09.237Z,8.50
2019-05-26T16:43:38.368Z,7.47
2019-05-26T16:46:07.511Z,7.20
2019-05-26T16:48:36.701Z,7.87
2019-05-26T16:51:05.872Z,7.70
2019-05-26T16:53:35.015Z,8.33
2019-05-26T16:56:04.116Z,8.87
2019-05-26T16:58:33.229Z,9.10
2019-05-26T17:01:02.378Z,10.70
2019-05-26T17:03:31.481Z,9.73
2019-05-26T17:06:08.083Z,9.40
2019-05-26T17:08:31.408Z,9.40
2019-05-26T17:11:00.519Z,9.70
2019-05-26T17:13:32.842Z,9.30
2019-05-26T17:16:00.460Z,10.43
2019-05-26T17:18:29.600Z,10.27
2019-05-26T17:20:58.716Z,9.97
2019-05-26T17:23:28.054Z,10.13
2019-05-26T17:25:57.161Z,10.30
2019-05-26T17:28:26.270Z,9.60
2019-05-26T17:30:55.481Z,9.97
2019-05-26T17:33:24.585Z,10.20
2019-05-26T17:35:53.707Z,9.90
2019-05-26T17:38:22.857Z,8.73
2019-05-26T17:40:52.061Z,9.23
2019-05-26T17:43:21.176Z,11.17
2019-05-26T17:45:50.345Z,9.67
2019-05-26T17:48:19.448Z,9.10
2019-05-26T17:50:48.538Z,8.83
2019-05-26T17:53:17.673Z,9.77
2019-05-26T17:55:46.776Z,8.80
2019-05-26T17:58:15.887Z,9.37
2019-05-26T18:00:45.356Z,9.07
2019-05-26T18:03:14.599Z,9.17
2019-05-26T18:05:43.741Z,8.90
2019-05-26T18:08:12.897Z,8.73
2019-05-26T18:10:43.118Z,8.30
2019-05-26T18:13:12.324Z,8.23
2019-05-26T18:15:41.553Z,9.47
2019-05-26T18:18:10.657Z,8.90
2019-05-26T18:20:39.833Z,9.30
2019-05-26T18:23:09.212Z,9.03
2019-05-26T18:25:38.328Z,9.30
2019-05-26T18:28:07.884Z,9.50
2019-05-26T18:30:37.031Z,9.20
2019-05-26T18:33:06.145Z,9.33
2019-05-26T18:35:35.260Z,10.50
2019-05-26T18:38:04.456Z,9.43
2019-05-26T18:40:33.568Z,8.90
2019-05-26T18:43:02.714Z,8.90
2019-05-26T18:45:31.818Z,7.93
2019-05-26T18:48:03.443Z,7.80
2019-05-26T18:50:31.873Z,7.60
2019-05-26T18:53:01.001Z,7.83
2019-05-26T18:55:30.138Z,6.30
2019-05-26T18:57:59.307Z,6.63
2019-05-26T19:00:30.837Z,5.27
2019-05-26T19:02:59.663Z,4.90
2019-05-26T19:05:33.742Z,4.70
2019-05-26T19:08:00.937Z,4.63
2019-05-26T19:10:30.132Z,4.97
2019-05-26T19:12:59.592Z,4.70
2019-05-26T19:15:28.727Z,4.37
2019-05-26T19:17:57.880Z,3.90
2019-05-26T19:20:26.993Z,2.77
2019-05-26T19:22:56.131Z,4.10
2019-05-26T19:25:25.410Z,3.93
2019-05-26T19:27:54.532Z,3.27
2019-05-26T19:30:23.752Z,2.17
2019-05-26T19:32:53.169Z,2.90
2019-05-26T19:35:22.297Z,3.27
2019-05-26T19:37:51.596Z,3.67
2019-05-26T19:40:20.765Z,3.10
2019-05-26T19:42:49.944Z,3.67
2019-05-26T19:45:19.163Z,4.30
2019-05-26T19:47:48.261Z,3.10
2019-05-26T19:50:17.637Z,3.60
2019-05-26T19:52:49.803Z,2.87
2019-05-26T19:55:17.793Z,3.10
2019-05-26T19:57:46.973Z,3.77
2019-05-26T20:00:16.928Z,4.07
2019-05-26T20:02:46.188Z,3.50
2019-05-26T20:05:15.488Z,2.83
2019-05-26T20:07:44.870Z,2.83
2019-05-26T20:10:15.888Z,3.03
2019-05-26T20:12:45.080Z,3.10
2019-05-26T20:15:14.376Z,3.17
2019-05-26T20:17:43.608Z,4.10
2019-05-26T20:20:12.985Z,3.80
2019-05-26T20:22:42.211Z,4.30
2019-05-26T20:25:11.584Z,4.60
2019-05-26T20:27:40.693Z,4.03
2019-05-26T20:30:10.107Z,4.30
2019-05-26T20:32:39.203Z,3.90
2019-05-26T20:35:09.580Z,4.30
2019-05-26T20:37:38.717Z,4.70
2019-05-26T20:40:08.114Z,4.50
2019-05-26T20:42:37.203Z,4.10
2019-05-26T20:45:07.991Z,4.60
2019-05-26T20:47:37.168Z,4.60
2019-05-26T20:50:06.477Z,5.00
2019-05-26T20:52:35.783Z,4.60
2019-05-26T20:55:05.197Z,5.20
2019-05-26T20:57:35.428Z,5.33
2019-05-26T21:00:05.193Z,5.80
2019-05-26T21:02:34.700Z,5.27
2019-05-26T21:05:04.316Z,6.20
2019-05-26T21:07:33.426Z,6.53
2019-05-26T21:10:04.844Z,5.93
2019-05-26T21:12:33.960Z,5.90
2019-05-26T21:15:03.079Z,6.27
2019-05-26T21:17:32.302Z,7.03
2019-05-26T21:20:02.473Z,6.93
2019-05-26T21:22:32.772Z,7.43
2019-05-26T21:25:01.884Z,7.60
2019-05-26T21:27:30.989Z,7.13
2019-05-26T21:30:00.161Z,7.53
2019-05-26T21:32:31.388Z,8.17
2019-05-26T21:35:00.371Z,7.60
2019-05-26T21:37:29.508Z,9.00
2019-05-26T21:39:58.760Z,7.53
2019-05-26T21:42:27.861Z,8.10
2019-05-26T21:44:56.997Z,9.13
2019-05-26T21:47:26.193Z,9.00
2019-05-26T21:49:55.329Z,9.23
2019-05-26T21:52:24.610Z,8.37
2019-05-26T21:54:53.888Z,7.73
2019-05-26T21:57:23.005Z,7.80
2019-05-26T21:59:52.149Z,7.17
2019-05-26T22:02:21.244Z,7.33
2019-05-26T22:04:50.372Z,7.20
2019-05-26T22:07:19.500Z,7.00
2019-05-26T22:09:48.620Z,6.63
2019-05-26T22:12:17.789Z,6.67
2019-05-26T22:14:47.801Z,6.47
2019-05-26T22:17:17.881Z,5.70
2019-05-26T22:19:47.013Z,5.30
2019-05-26T22:22:16.183Z,5.70
2019-05-26T22:24:45.276Z,5.17
2019-05-26T22:27:14.412Z,5.03
2019-05-26T22:29:43.552Z,6.43
2019-05-26T22:32:12.648Z,4.50
2019-05-26T22:34:41.747Z,4.47
2019-05-26T22:37:10.918Z,4.53
2019-05-26T22:39:40.036Z,3.97
2019-05-26T22:42:09.176Z,2.87
2019-05-26T22:44:38.295Z,3.77
2019-05-26T22:47:07.520Z,3.67
2019-05-26T22:49:36.664Z,3.57
2019-05-26T22:52:05.932Z,3.70
2019-05-26T22:54:35.165Z,3.50
2019-05-26T22:57:04.584Z,3.30
2019-05-26T22:59:33.681Z,2.97
2019-05-26T23:02:02.813Z,3.07
2019-05-26T23:04:31.949Z,2.47
2019-05-26T23:07:01.031Z,2.80
2019-05-26T23:09:30.130Z,2.50
2019-05-26T23:11:59.396Z,2.57
2019-05-26T23:14:28.505Z,2.50
2019-05-26T23:16:57.863Z,2.33
2019-05-26T23:19:27.030Z,2.23
2019-05-26T23:21:56.487Z,2.13
2019-05-26T23:24:25.648Z,2.00
2019-05-26T23:26:54.845Z,1.83
2019-05-26T23:29:24.986Z,1.67
2019-05-26T23:31:54.163Z,2.00
2019-05-26T23:34:23.351Z,1.90
2019-05-26T23:36:52.497Z,1.70
2019-05-26T23:39:21.663Z,2.07
2019-05-26T23:41:50.832Z,2.20
2019-05-26T23:44:20.015Z,1.80
2019-05-26T23:46:49.192Z,1.93
2019-05-26T23:49:18.340Z,2.00
2019-05-26T23:51:47.480Z,2.27
2019-05-26T23:54:16.669Z,1.80
2019-05-26T23:56:46.048Z,1.80
2019-05-26T23:59:15.360Z,2.07
